Cashmere, Washington
Current Conditions -  °F | °C
As of 12:55 PM on Monday 24 Nov 2014 (Local Time) from KEAT Reporting Station
Broken Clouds Broken Clouds  
Wind Chill: 38°   Ceiling: 9000
Heat Index: 42°   Visibility: 10mi
Dew Point: 33°   Wind: 6mph
Humidity: 70%   Direction: 90°E
Pressure: 30.25"   Gusts: NA
Location:  47.52°N, 120.47°W
Report Text: KEAT 242055Z AUTO 09005KT 10SM BKN090 06/01 A3025 RMK AO2 SLP252 T00560006 58022
Loading
Personal Weather Stations






























Interactive Weather Map New forecast layout! Learn more

10-Day Weather Forecast

Advertisements
Track Severe Weather on mobile